createdAt,value
2017-05-01T00:02:13.638Z,6.18
2017-05-01T00:04:41.935Z,6.84
2017-05-01T00:07:10.231Z,5.92
2017-05-01T00:09:38.558Z,6.20
2017-05-01T00:12:06.852Z,7.05
2017-05-01T00:14:35.143Z,6.70
2017-05-01T00:17:03.464Z,6.33
2017-05-01T00:19:31.762Z,5.50
2017-05-01T00:22:00.050Z,6.34
2017-05-01T00:24:29.114Z,5.70
2017-05-01T00:26:57.407Z,6.35
2017-05-01T00:29:25.699Z,6.27
2017-05-01T00:31:54.774Z,5.97
2017-05-01T00:34:23.072Z,4.33
2017-05-01T00:36:52.108Z,5.37
2017-05-01T00:39:20.434Z,4.27
2017-05-01T00:41:48.727Z,5.82
2017-05-01T00:44:17.030Z,5.03
2017-05-01T00:46:45.351Z,3.15
2017-05-01T00:49:13.641Z,3.97
2017-05-01T00:51:41.931Z,5.00
2017-05-01T00:54:10.250Z,6.07
2017-05-01T00:56:38.543Z,7.10
2017-05-01T00:59:06.834Z,6.88
2017-05-01T01:01:35.154Z,7.55
2017-05-01T01:04:03.447Z,8.48
2017-05-01T01:06:31.738Z,7.68
2017-05-01T01:09:05.707Z,8.78
2017-05-01T01:11:33.995Z,8.97
2017-05-01T01:14:02.279Z,5.07
2017-05-01T01:16:30.601Z,5.77
2017-05-01T01:18:58.892Z,8.33
2017-05-01T01:21:27.931Z,8.95
2017-05-01T01:23:56.257Z,9.32
2017-05-01T01:26:25.295Z,9.55
2017-05-01T01:28:53.589Z,6.95
2017-05-01T01:31:21.907Z,8.45
2017-05-01T01:33:50.203Z,9.92
2017-05-01T01:36:19.244Z,8.97
2017-05-01T01:38:47.585Z,6.83
2017-05-01T01:41:15.881Z,7.10
2017-05-01T01:43:44.173Z,7.82
2017-05-01T01:46:13.226Z,6.93
2017-05-01T01:48:41.525Z,8.35
2017-05-01T01:51:09.823Z,10.90
2017-05-01T01:53:38.893Z,10.93
2017-05-01T01:56:07.184Z,9.82
2017-05-01T01:58:36.212Z,8.72
2017-05-01T02:01:04.538Z,9.53
2017-05-01T02:03:32.836Z,8.77
2017-05-01T02:06:01.870Z,10.13
2017-05-01T02:08:30.188Z,10.18
2017-05-01T02:10:58.480Z,9.20
2017-05-01T02:13:27.521Z,10.33
2017-05-01T02:15:55.847Z,9.83
2017-05-01T02:18:24.153Z,8.08
2017-05-01T02:20:52.446Z,8.42
2017-05-01T02:23:20.766Z,11.68
2017-05-01T02:25:49.055Z,10.42
2017-05-01T02:28:17.357Z,10.67
2017-05-01T02:30:46.414Z,10.22
2017-05-01T02:33:14.715Z,10.62
2017-05-01T02:35:43.746Z,7.85
2017-05-01T02:38:12.070Z,8.63
2017-05-01T02:40:40.364Z,7.18
2017-05-01T02:43:08.654Z,8.60
2017-05-01T02:45:36.962Z,8.10
2017-05-01T02:48:05.252Z,9.98
2017-05-01T02:50:33.557Z,9.00
2017-05-01T02:53:02.625Z,9.18
2017-05-01T02:55:30.919Z,6.07
2017-05-01T02:57:59.205Z,5.92
2017-05-01T03:00:28.259Z,5.78
2017-05-01T03:02:56.551Z,5.03
2017-05-01T03:05:24.834Z,5.65
2017-05-01T03:07:53.152Z,4.75
2017-05-01T03:10:21.444Z,5.97
2017-05-01T03:12:49.731Z,5.98
2017-05-01T03:15:18.045Z,5.42
2017-05-01T03:17:46.331Z,8.90
2017-05-01T03:20:14.620Z,7.68
2017-05-01T03:22:43.683Z,5.85
2017-05-01T03:25:11.978Z,11.30
2017-05-01T03:27:40.270Z,9.48
2017-05-01T03:30:09.334Z,6.20
2017-05-01T03:32:37.619Z,6.90
2017-05-01T03:35:05.903Z,5.65
2017-05-01T03:37:34.229Z,5.85
2017-05-01T03:40:03.265Z,6.57
2017-05-01T03:42:31.558Z,4.35
2017-05-01T03:44:59.874Z,4.38
2017-05-01T03:47:28.168Z,5.02
2017-05-01T03:49:57.209Z,6.68
2017-05-01T03:52:25.538Z,9.73
2017-05-01T03:54:54.571Z,6.25
2017-05-01T03:57:22.865Z,8.25
2017-05-01T03:59:51.199Z,10.23
2017-05-01T04:02:19.490Z,8.13
2017-05-01T04:04:47.793Z,6.25
2017-05-01T04:07:16.110Z,5.38
2017-05-01T04:09:45.136Z,4.85
2017-05-01T04:12:13.424Z,7.42
2017-05-01T04:14:41.759Z,11.70
2017-05-01T04:17:10.062Z,9.50
2017-05-01T04:19:38.351Z,9.62
2017-05-01T04:22:06.678Z,11.35
2017-05-01T04:24:34.965Z,10.32
2017-05-01T04:27:03.261Z,8.48
2017-05-01T04:29:31.591Z,6.80
2017-05-01T04:31:59.879Z,7.28
2017-05-01T04:34:28.179Z,11.18
2017-05-01T04:36:56.499Z,9.05
2017-05-01T04:39:24.790Z,8.62
2017-05-01T04:41:53.087Z,7.03
2017-05-01T04:44:21.418Z,12.15
2017-05-01T04:46:50.464Z,12.32
2017-05-01T04:49:18.775Z,13.92
2017-05-01T04:51:47.115Z,12.70
2017-05-01T04:54:15.418Z,10.05
2017-05-01T04:56:44.460Z,9.32
2017-05-01T04:59:12.795Z,12.22
2017-05-01T05:01:41.856Z,13.22
2017-05-01T05:04:10.164Z,11.90
2017-05-01T05:06:38.490Z,10.52
2017-05-01T05:09:06.783Z,9.34
2017-05-01T05:11:35.071Z,7.86
2017-05-01T05:14:03.409Z,10.82
2017-05-01T05:16:31.712Z,12.96
2017-05-01T05:19:00.010Z,14.65
2017-05-01T05:21:28.346Z,10.82
2017-05-01T05:23:56.651Z,14.38
2017-05-01T05:26:24.943Z,11.54
2017-05-01T05:28:53.282Z,13.86
2017-05-01T05:31:21.588Z,12.68
2017-05-01T05:33:49.894Z,15.32
2017-05-01T05:36:18.215Z,15.42
2017-05-01T05:38:46.532Z,13.38
2017-05-01T05:41:15.582Z,12.02
2017-05-01T05:43:43.931Z,16.10
2017-05-01T05:46:12.227Z,14.10
2017-05-01T05:48:40.529Z,13.50
2017-05-01T05:51:08.863Z,16.00
2017-05-01T05:53:37.166Z,14.70
2017-05-01T05:56:05.462Z,14.08
2017-05-01T05:58:33.783Z,11.58
2017-05-01T06:01:02.074Z,13.58
2017-05-01T06:03:30.371Z,9.88
2017-05-01T06:05:59.442Z,10.62
2017-05-01T06:08:27.749Z,11.88
2017-05-01T06:10:56.043Z,13.34
2017-05-01T06:13:24.372Z,12.18
2017-05-01T06:15:52.680Z,16.96
2017-05-01T06:18:20.977Z,16.54
2017-05-01T06:20:49.310Z,14.72
2017-05-01T06:23:17.612Z,16.30
2017-05-01T06:25:45.925Z,13.88
2017-05-01T06:28:14.840Z,14.12
2017-05-01T06:30:43.148Z,15.84
2017-05-01T06:33:11.450Z,16.34
2017-05-01T06:35:39.779Z,14.68
2017-05-01T06:38:08.079Z,16.60
2017-05-01T06:40:36.380Z,14.20
2017-05-01T06:43:04.712Z,15.74
2017-05-01T06:45:33.755Z,15.64
2017-05-01T06:48:02.052Z,15.80
2017-05-01T06:50:30.379Z,14.52
2017-05-01T06:52:59.419Z,16.28
2017-05-01T06:55:27.715Z,16.48
2017-05-01T06:57:56.050Z,14.42
2017-05-01T07:00:24.349Z,12.70
2017-05-01T07:02:51.889Z,15.10
2017-05-01T07:05:20.963Z,16.02
2017-05-01T07:07:49.264Z,17.52
2017-05-01T07:10:18.312Z,14.58
2017-05-01T07:12:46.644Z,15.42
2017-05-01T07:15:15.685Z,12.10
2017-05-01T07:17:43.982Z,13.38
2017-05-01T07:20:12.311Z,15.42
2017-05-01T07:22:40.618Z,15.22
2017-05-01T07:25:09.655Z,16.42
2017-05-01T07:27:37.975Z,14.66
2017-05-01T07:30:07.011Z,12.56
2017-05-01T07:32:35.308Z,15.66
2017-05-01T07:35:03.621Z,15.98
2017-05-01T07:37:31.915Z,15.86
2017-05-01T07:40:00.978Z,16.06
2017-05-01T07:42:29.275Z,15.42
2017-05-01T07:44:57.572Z,12.68
2017-05-01T07:47:25.907Z,12.68
2017-05-01T07:49:54.202Z,15.76
2017-05-01T07:52:22.502Z,15.52
2017-05-01T07:54:50.843Z,14.04
2017-05-01T07:57:19.142Z,11.76
2017-05-01T07:59:47.442Z,12.96
2017-05-01T08:02:15.777Z,15.26
2017-05-01T08:04:44.079Z,15.22
2017-05-01T08:07:12.374Z,13.84
2017-05-01T08:09:40.698Z,14.84
2017-05-01T08:12:09.739Z,14.38
2017-05-01T08:14:38.041Z,13.80
2017-05-01T08:17:06.363Z,12.36
2017-05-01T08:19:34.659Z,12.52
2017-05-01T08:22:02.987Z,12.88
2017-05-01T08:24:31.291Z,11.08
2017-05-01T08:26:59.589Z,11.06
2017-05-01T08:29:27.903Z,11.86
2017-05-01T08:31:56.200Z,10.90
2017-05-01T08:34:25.276Z,11.24
2017-05-01T08:36:53.572Z,12.90
2017-05-01T08:39:21.868Z,12.72
2017-05-01T08:41:50.927Z,13.78
2017-05-01T08:44:19.223Z,11.62
2017-05-01T08:46:48.286Z,13.26
2017-05-01T08:49:16.578Z,12.64
2017-05-01T08:51:44.866Z,10.28
2017-05-01T08:54:13.185Z,11.72
2017-05-01T08:56:41.496Z,12.36
2017-05-01T08:59:10.560Z,12.00
2017-05-01T09:01:38.855Z,11.78
2017-05-01T09:04:07.152Z,11.76
2017-05-01T09:06:36.210Z,12.20
2017-05-01T09:09:04.503Z,9.68
2017-05-01T09:11:32.823Z,13.46
2017-05-01T09:14:01.123Z,13.48
2017-05-01T09:16:29.423Z,15.14
2017-05-01T09:18:57.749Z,12.68
2017-05-01T09:21:26.052Z,11.76
2017-05-01T09:23:54.383Z,12.96
2017-05-01T09:26:23.417Z,12.46
2017-05-01T09:28:51.707Z,13.28
2017-05-01T09:31:20.026Z,12.86
2017-05-01T09:33:48.360Z,15.92
2017-05-01T09:36:16.667Z,11.56
2017-05-01T09:38:44.963Z,12.72
2017-05-01T09:41:13.712Z,12.04
2017-05-01T09:43:42.031Z,12.50
2017-05-01T09:46:10.327Z,13.00
2017-05-01T09:48:38.659Z,13.02
2017-05-01T09:51:06.959Z,11.58
2017-05-01T09:53:35.999Z,11.26
2017-05-01T09:56:04.326Z,12.88
2017-05-01T09:58:32.630Z,11.04
2017-05-01T10:01:00.924Z,11.52
2017-05-01T10:03:29.238Z,11.40
2017-05-01T10:05:57.534Z,12.12
2017-05-01T10:08:26.572Z,10.80
2017-05-01T10:10:54.903Z,12.76
2017-05-01T10:13:23.199Z,12.14
2017-05-01T10:15:51.501Z,11.30
2017-05-01T10:18:19.825Z,12.00
2017-05-01T10:20:48.868Z,12.30
2017-05-01T10:23:17.164Z,10.70
2017-05-01T10:25:45.484Z,10.30
2017-05-01T10:28:13.783Z,11.30
2017-05-01T10:30:42.079Z,11.20
2017-05-01T10:33:10.413Z,10.80
2017-05-01T10:35:38.701Z,8.44
2017-05-01T10:38:06.995Z,11.92
2017-05-01T10:40:35.323Z,11.10
2017-05-01T10:43:03.619Z,9.28
2017-05-01T10:45:31.912Z,11.64
2017-05-01T10:48:00.239Z,10.76
2017-05-01T10:50:29.278Z,10.84
2017-05-01T10:52:57.576Z,11.54
2017-05-01T10:55:25.909Z,10.82
2017-05-01T10:57:54.208Z,11.98
2017-05-01T11:00:22.502Z,11.04
2017-05-01T11:02:50.834Z,11.06
2017-05-01T11:05:19.125Z,12.42
2017-05-01T11:07:47.419Z,10.58
2017-05-01T11:10:15.747Z,11.08
2017-05-01T11:12:44.040Z,9.40
2017-05-01T11:15:12.337Z,9.38
2017-05-01T11:17:40.655Z,9.92
2017-05-01T11:20:09.687Z,9.22
2017-05-01T11:22:37.983Z,9.70
2017-05-01T11:25:06.313Z,10.76
2017-05-01T11:27:34.610Z,9.96
2017-05-01T11:30:02.910Z,10.32
2017-05-01T11:32:31.240Z,10.46
2017-05-01T11:34:59.534Z,8.30
2017-05-01T11:37:27.827Z,10.16
2017-05-01T11:39:56.145Z,8.62
2017-05-01T11:42:25.182Z,7.38
2017-05-01T11:44:53.481Z,7.86
2017-05-01T11:47:21.809Z,8.32
2017-05-01T11:49:50.099Z,8.38
2017-05-01T11:52:18.395Z,8.52
2017-05-01T11:54:46.723Z,8.38
2017-05-01T11:57:15.746Z,8.66
2017-05-01T11:59:44.930Z,8.10
2017-05-01T12:02:13.990Z,8.56
2017-05-01T12:04:42.286Z,8.28
2017-05-01T12:07:11.320Z,8.18
2017-05-01T12:09:39.643Z,7.78
2017-05-01T12:12:08.676Z,7.92
2017-05-01T12:14:36.971Z,8.20
2017-05-01T12:17:05.292Z,7.52
2017-05-01T12:19:33.587Z,7.58
2017-05-01T12:22:01.874Z,6.78
2017-05-01T12:24:30.205Z,7.00
2017-05-01T12:26:58.495Z,6.92
2017-05-01T12:29:27.531Z,7.70
2017-05-01T12:31:55.855Z,7.14
2017-05-01T12:34:24.144Z,8.26
2017-05-01T12:36:52.435Z,6.94
2017-05-01T12:39:20.763Z,6.98
2017-05-01T12:41:49.799Z,7.58
2017-05-01T12:44:18.092Z,8.20
2017-05-01T12:46:46.406Z,7.12
2017-05-01T12:49:15.435Z,7.68
2017-05-01T12:51:43.722Z,7.72
2017-05-01T12:54:12.049Z,9.40
2017-05-01T12:56:40.343Z,8.60
2017-05-01T12:59:09.380Z,11.58
2017-05-01T13:01:37.694Z,6.90
2017-05-01T13:04:05.995Z,11.88
2017-05-01T13:06:34.281Z,6.74
2017-05-01T13:09:02.598Z,9.26
2017-05-01T13:11:30.888Z,6.78
2017-05-01T13:13:59.179Z,6.26
2017-05-01T13:16:28.236Z,6.44
2017-05-01T13:18:56.529Z,8.18
2017-05-01T13:21:24.861Z,6.60
2017-05-01T13:23:53.547Z,6.44
2017-05-01T13:26:21.851Z,5.74
2017-05-01T13:28:50.168Z,7.12
2017-05-01T13:31:19.207Z,4.64
2017-05-01T13:33:47.502Z,5.58
2017-05-01T13:36:16.559Z,4.70
2017-05-01T13:38:44.854Z,4.04
2017-05-01T13:41:13.142Z,3.62
2017-05-01T13:43:42.199Z,4.06
2017-05-01T13:46:10.488Z,3.66
2017-05-01T13:48:38.782Z,3.30
2017-05-01T13:51:07.099Z,2.78
2017-05-01T13:53:35.392Z,3.58
2017-05-01T13:56:03.679Z,2.98
2017-05-01T13:58:32.012Z,2.72
2017-05-01T14:01:01.047Z,3.08
2017-05-01T14:03:29.340Z,3.58
2017-05-01T14:05:57.693Z,3.00
2017-05-01T14:08:25.989Z,2.52
2017-05-01T14:10:54.282Z,3.00
2017-05-01T14:13:22.611Z,2.40
2017-05-01T14:15:50.903Z,1.70
2017-05-01T14:18:19.202Z,1.86
2017-05-01T14:20:47.523Z,1.64
2017-05-01T14:23:15.818Z,1.76
2017-05-01T14:25:44.111Z,2.20
2017-05-01T14:28:12.445Z,1.10
2017-05-01T14:30:41.478Z,1.18
2017-05-01T14:33:09.775Z,2.26
2017-05-01T14:35:38.111Z,1.30
2017-05-01T14:38:06.398Z,2.10
2017-05-01T14:40:34.690Z,1.20
2017-05-01T14:43:03.016Z,1.12
2017-05-01T14:45:32.046Z,0.94
2017-05-01T14:48:00.334Z,1.64
2017-05-01T14:50:29.391Z,1.54
2017-05-01T14:52:57.687Z,1.30
2017-05-01T14:55:26.056Z,1.60
2017-05-01T14:57:54.491Z,1.72
2017-05-01T15:00:23.694Z,1.68
2017-05-01T15:02:51.998Z,1.40
2017-05-01T15:05:20.323Z,1.88
2017-05-01T15:07:48.623Z,1.10
2017-05-01T15:10:17.659Z,1.68
2017-05-01T15:12:45.991Z,2.72
2017-05-01T15:15:15.029Z,2.50
2017-05-01T15:17:43.323Z,1.94
2017-05-01T15:20:11.651Z,3.16
2017-05-01T15:22:39.951Z,4.40
2017-05-01T15:25:08.248Z,3.54
2017-05-01T15:27:36.555Z,6.48
2017-05-01T15:30:04.850Z,1.56
2017-05-01T15:32:33.141Z,2.66
2017-05-01T15:35:01.462Z,1.92
2017-05-01T15:37:29.750Z,1.92
2017-05-01T15:39:58.038Z,1.30
2017-05-01T15:42:26.355Z,1.40
2017-05-01T15:44:54.655Z,2.82
2017-05-01T15:47:23.687Z,1.10
2017-05-01T15:49:52.012Z,2.16
2017-05-01T15:52:20.306Z,1.00
2017-05-01T15:54:48.609Z,2.12
2017-05-01T15:57:16.940Z,1.24
2017-05-01T15:59:45.235Z,4.18
2017-05-01T16:02:13.532Z,4.38
2017-05-01T16:04:41.859Z,1.66
2017-05-01T16:07:10.161Z,2.34
2017-05-01T16:09:39.202Z,3.34
2017-05-01T16:12:07.526Z,3.62
2017-05-01T16:14:35.816Z,2.46
2017-05-01T16:17:04.879Z,2.88
2017-05-01T16:19:33.195Z,4.10
2017-05-01T16:22:02.227Z,1.94
2017-05-01T16:24:30.520Z,2.20
2017-05-01T16:26:58.854Z,1.70
2017-05-01T16:29:27.140Z,6.44
2017-05-01T16:31:55.432Z,3.98
2017-05-01T16:34:23.759Z,2.82
2017-05-01T16:36:52.054Z,3.10
2017-05-01T16:39:21.112Z,2.02
2017-05-01T16:41:49.398Z,1.52
2017-05-01T16:44:17.684Z,2.08
2017-05-01T16:46:46.008Z,2.62
2017-05-01T16:49:14.300Z,1.90
2017-05-01T16:51:42.599Z,7.12
2017-05-01T16:54:10.922Z,2.18
2017-05-01T16:56:39.963Z,23.00
2017-05-01T16:59:08.250Z,2.28
2017-05-01T17:01:36.574Z,2.26
2017-05-01T17:04:04.863Z,5.02
2017-05-01T17:06:33.159Z,2.90
2017-05-01T17:09:02.220Z,5.62
2017-05-01T17:11:30.507Z,5.12
2017-05-01T17:13:58.798Z,7.32
2017-05-01T17:16:27.867Z,2.48
2017-05-01T17:18:56.167Z,3.86
2017-05-01T17:21:25.199Z,2.54
2017-05-01T17:23:53.515Z,3.36
2017-05-01T17:26:21.802Z,4.58
2017-05-01T17:28:50.087Z,4.44
2017-05-01T17:31:18.408Z,1.54
2017-05-01T17:33:46.696Z,1.28
2017-05-01T17:36:14.986Z,1.18
2017-05-01T17:38:43.299Z,1.30
2017-05-01T17:41:11.583Z,3.02
2017-05-01T17:43:39.899Z,1.92
2017-05-01T17:46:08.194Z,1.68
2017-05-01T17:48:36.482Z,1.62
2017-05-01T17:51:04.787Z,1.78
2017-05-01T17:53:33.081Z,1.30
2017-05-01T17:56:01.372Z,1.46
2017-05-01T17:58:29.690Z,1.10
2017-05-01T18:00:57.979Z,2.04
2017-05-01T18:03:27.413Z,1.00
2017-05-01T18:05:56.747Z,1.20
2017-05-01T18:08:25.706Z,1.78
2017-05-01T18:10:54.038Z,2.62
2017-05-01T18:13:22.329Z,1.10
2017-05-01T18:15:50.626Z,1.42
2017-05-01T18:18:18.924Z,1.24
2017-05-01T18:20:47.963Z,1.10
2017-05-01T18:23:16.246Z,1.10
2017-05-01T18:25:44.534Z,1.18
2017-05-01T18:28:12.821Z,1.48
2017-05-01T18:30:41.108Z,1.16
2017-05-01T18:33:09.400Z,2.78
2017-05-01T18:35:38.462Z,1.16
2017-05-01T18:38:06.756Z,1.66
2017-05-01T18:40:35.046Z,1.20
2017-05-01T18:43:04.111Z,1.08
2017-05-01T18:45:32.400Z,1.20
2017-05-01T18:48:01.430Z,1.14
2017-05-01T18:50:29.721Z,1.00
2017-05-01T18:52:58.009Z,1.08
2017-05-01T18:55:26.304Z,1.10
2017-05-01T18:57:54.599Z,0.70
2017-05-01T19:00:22.895Z,0.80
2017-05-01T19:02:51.923Z,1.30
2017-05-01T19:05:20.220Z,1.26
2017-05-01T19:07:48.554Z,1.36
2017-05-01T19:10:16.842Z,0.88
2017-05-01T19:12:45.126Z,1.00
2017-05-01T19:15:13.435Z,1.10
2017-05-01T19:17:41.724Z,1.50
2017-05-01T19:20:10.016Z,1.32
2017-05-01T19:22:38.339Z,1.52
2017-05-01T19:25:06.628Z,1.32
2017-05-01T19:27:34.923Z,1.28
2017-05-01T19:30:03.240Z,1.48
2017-05-01T19:32:32.276Z,1.12
2017-05-01T19:35:00.571Z,1.40
2017-05-01T19:37:28.878Z,1.48
2017-05-01T19:39:57.910Z,2.02
2017-05-01T19:42:26.231Z,1.38
2017-05-01T19:44:54.523Z,1.08
2017-05-01T19:47:23.560Z,1.60
2017-05-01T19:49:51.874Z,1.40
2017-05-01T19:52:20.166Z,0.94
2017-05-01T19:54:48.458Z,1.30
2017-05-01T19:57:17.506Z,1.42
2017-05-01T19:59:45.799Z,1.42
2017-05-01T20:02:14.128Z,1.13
2017-05-01T20:04:42.420Z,1.96
2017-05-01T20:07:10.713Z,1.36
2017-05-01T20:09:39.022Z,1.22
2017-05-01T20:12:07.307Z,2.14
2017-05-01T20:14:35.615Z,2.08
2017-05-01T20:17:03.908Z,2.04
2017-05-01T20:19:32.196Z,1.76
2017-05-01T20:22:00.562Z,2.12
2017-05-01T20:24:28.851Z,1.64
2017-05-01T20:26:57.179Z,2.50
2017-05-01T20:29:25.474Z,2.40
2017-05-01T20:31:53.768Z,1.94
2017-05-01T20:34:22.081Z,1.74
2017-05-01T20:36:50.375Z,2.48
2017-05-01T20:39:18.696Z,1.80
2017-05-01T20:41:46.990Z,2.52
2017-05-01T20:44:15.282Z,1.78
2017-05-01T20:46:43.594Z,2.10
2017-05-01T20:49:11.894Z,1.94
2017-05-01T20:51:40.206Z,2.06
2017-05-01T20:54:08.495Z,2.32
2017-05-01T20:56:36.788Z,1.72
2017-05-01T20:59:05.101Z,2.10
2017-05-01T21:01:34.135Z,2.62
2017-05-01T21:04:02.451Z,2.52
2017-05-01T21:06:30.743Z,1.60
2017-05-01T21:08:59.779Z,1.80
2017-05-01T21:11:28.084Z,1.36
2017-05-01T21:13:56.375Z,1.40
2017-05-01T21:16:24.699Z,2.10
2017-05-01T21:18:52.998Z,1.60
2017-05-01T21:21:21.293Z,2.10
2017-05-01T21:23:49.604Z,2.14
2017-05-01T21:26:18.640Z,2.00
2017-05-01T21:28:46.968Z,2.36
2017-05-01T21:31:15.265Z,1.62
2017-05-01T21:33:44.300Z,2.00
2017-05-01T21:36:12.607Z,2.02
2017-05-01T21:38:41.635Z,2.60
2017-05-01T21:41:09.953Z,1.88
2017-05-01T21:43:38.244Z,2.12
2017-05-01T21:46:06.531Z,1.62
2017-05-01T21:48:34.846Z,1.92
2017-05-01T21:51:03.134Z,1.96
2017-05-01T21:53:31.445Z,1.88
2017-05-01T21:56:00.483Z,1.92
2017-05-01T21:58:28.766Z,2.02
2017-05-01T22:00:57.082Z,1.88
2017-05-01T22:03:26.116Z,2.50
2017-05-01T22:05:54.439Z,2.58
2017-05-01T22:08:22.727Z,2.66
2017-05-01T22:10:51.014Z,2.42
2017-05-01T22:13:20.068Z,2.26
2017-05-01T22:15:48.356Z,1.88
2017-05-01T22:18:16.679Z,2.68
2017-05-01T22:20:45.711Z,2.62
2017-05-01T22:23:14.006Z,2.62
2017-05-01T22:25:42.318Z,2.82
2017-05-01T22:28:11.748Z,2.40
2017-05-01T22:30:40.070Z,2.86
2017-05-01T22:33:08.361Z,2.62
2017-05-01T22:35:36.650Z,2.56
2017-05-01T22:38:05.708Z,3.30
2017-05-01T22:40:33.999Z,2.66
2017-05-01T22:43:02.311Z,3.38
2017-05-01T22:45:31.346Z,2.40
2017-05-01T22:47:59.639Z,2.60
2017-05-01T22:50:27.952Z,2.20
2017-05-01T22:52:56.984Z,2.54
2017-05-01T22:55:25.303Z,2.66
2017-05-01T22:57:53.595Z,2.44
2017-05-01T23:00:22.628Z,2.90
2017-05-01T23:02:50.941Z,3.72
2017-05-01T23:05:19.232Z,2.40
2017-05-01T23:07:47.559Z,3.06
2017-05-01T23:10:15.848Z,2.80
2017-05-01T23:12:44.141Z,2.50
2017-05-01T23:15:12.458Z,2.78
2017-05-01T23:17:41.491Z,2.18
2017-05-01T23:20:09.801Z,2.62
2017-05-01T23:22:38.382Z,2.36
2017-05-01T23:25:06.671Z,2.68
2017-05-01T23:27:34.984Z,1.70
2017-05-01T23:30:03.275Z,2.82
2017-05-01T23:32:31.594Z,3.40
2017-05-01T23:34:59.879Z,3.32
2017-05-01T23:37:28.171Z,2.62
2017-05-01T23:39:56.490Z,3.00
2017-05-01T23:42:24.783Z,3.58
2017-05-01T23:44:53.111Z,2.46
2017-05-01T23:47:21.400Z,2.00
2017-05-01T23:49:50.433Z,2.14
2017-05-01T23:52:19.872Z,2.56
2017-05-01T23:54:48.255Z,2.38
2017-05-01T23:57:16.591Z,2.58
2017-05-01T23:59:44.880Z,2.62
